Time;durP1;ratioP1;P1;durP2;ratioP2;P2;SDS_P1;SDS_P2;PMS_P1;PMS_P2;Temp;Humidity;BMP_temperature;BMP_pressure;BME280_temperature;BME280_humidity;BME280_pressure;Samples;Min_cycle;Max_cycle;Signal;HPM_P1;HPM_P2
2021/08/22 00:00:31;;;;;;;12.38;5.53;;;512.00;1971.20;;;;;;5071552;28;20028;-63
2021/08/22 00:02:57;;;;;;;6.93;5.00;;;512.00;1971.20;;;;;;5070926;28;20116;-62
2021/08/22 00:05:22;;;;;;;6.15;4.43;;;512.00;1996.80;;;;;;5070681;28;20447;-62
2021/08/22 00:07:48;;;;;;;7.45;5.30;;;487.30;1996.80;;;;;;5070917;28;20028;-62
2021/08/22 00:10:14;;;;;;;7.22;4.60;;;487.30;2022.40;;;;;;5070759;28;20035;-62
2021/08/22 00:12:40;;;;;;;7.38;4.78;;;487.30;2022.40;;;;;;5070955;28;20029;-65
2021/08/22 00:15:07;;;;;;;8.55;5.28;;;487.30;2048.00;;;;;;5070816;28;20029;-61
2021/08/22 00:17:33;;;;;;;6.55;4.90;;;487.10;2048.00;;;;;;5070738;28;20074;-62
2021/08/22 00:19:58;;;;;;;6.63;5.20;;;487.00;2073.60;;;;;;5070902;28;20029;-62
2021/08/22 00:22:24;;;;;;;7.43;4.72;;;487.10;2073.60;;;;;;5070503;28;20040;-62
2021/08/22 00:24:50;;;;;;;8.18;5.53;;;487.00;2099.20;;;;;;5070801;28;20028;-62
2021/08/22 00:27:16;;;;;;;6.82;5.05;;;487.00;2099.20;;;;;;5070611;28;20031;-62
2021/08/22 00:29:42;;;;;;;8.13;4.82;;;487.00;2099.20;;;;;;5070830;28;20107;-62
2021/08/22 00:32:08;;;;;;;7.15;5.00;;;487.00;2099.20;;;;;;5070739;28;20364;-64
2021/08/22 00:34:34;;;;;;;6.40;4.68;;;486.90;2124.80;;;;;;5070658;28;20077;-63
2021/08/22 00:36:59;;;;;;;9.52;4.97;;;486.80;2124.80;;;;;;5070524;28;20032;-62
2021/08/22 00:39:29;;;;;;;6.75;5.15;;;486.80;2124.80;;;;;;5070403;28;20036;-62
2021/08/22 00:41:55;;;;;;;9.50;5.25;;;486.80;2124.80;;;;;;5070623;28;20043;-63
2021/08/22 00:44:22;;;;;;;9.45;4.85;;;486.80;2150.40;;;;;;5070593;28;20409;-62
2021/08/22 00:46:49;;;;;;;10.90;5.32;;;486.80;2150.40;;;;;;5070448;28;20017;-63
2021/08/22 00:49:15;;;;;;;7.63;4.95;;;486.80;2176.00;;;;;;5070221;28;20044;-66
2021/08/22 00:51:42;;;;;;;11.38;4.85;;;486.80;2150.40;;;;;;5070367;28;20386;-67
2021/08/22 00:54:08;;;;;;;8.43;5.35;;;486.70;2176.00;;;;;;5070233;28;20024;-63
2021/08/22 00:56:34;;;;;;;6.13;4.68;;;486.70;2176.00;;;;;;5069875;28;20496;-65
2021/08/22 00:59:15;;;;;;;8.52;4.65;;;486.70;2176.00;;;;;;5070330;28;20110;-63
2021/08/22 01:01:44;;;;;;;6.72;4.88;;;486.70;2176.00;;;;;;5070215;28;20074;-63
2021/08/22 01:04:25;;;;;;;6.43;4.78;;;486.70;2176.00;;;;;;5070316;28;20071;-64
2021/08/22 01:07:11;;;;;;;5.40;4.28;;;486.70;2176.00;;;;;;5069999;28;20055;-65
2021/08/22 01:09:43;;;;;;;7.20;4.68;;;486.70;2150.40;;;;;;5069969;28;20077;-65
2021/08/22 01:12:27;;;;;;;7.85;4.97;;;486.80;2150.40;;;;;;5070255;28;20021;-63
2021/08/22 01:14:57;;;;;;;11.00;5.75;;;486.80;2150.40;;;;;;5069967;28;20028;-62
2021/08/22 01:17:29;;;;;;;7.00;4.75;;;486.70;2176.00;;;;;;5070472;28;20287;-62
2021/08/22 01:20:09;;;;;;;9.48;5.45;;;486.80;2150.40;;;;;;5070209;28;20108;-65
2021/08/22 01:22:38;;;;;;;7.65;5.70;;;486.70;2176.00;;;;;;5071606;28;20052;-62
2021/08/22 01:25:07;;;;;;;8.70;5.50;;;486.70;2176.00;;;;;;5074109;28;20466;-62
2021/08/22 01:27:35;;;;;;;8.60;5.85;;;486.70;2176.00;;;;;;5074444;28;20111;-63
2021/08/22 01:30:13;;;;;;;7.47;5.10;;;486.70;2201.60;;;;;;5074209;28;20020;-62
2021/08/22 01:32:42;;;;;;;8.00;6.20;;;486.60;2227.20;;;;;;5074236;28;20498;-62
2021/08/22 01:35:10;;;;;;;9.10;5.07;;;486.60;2227.20;;;;;;5073888;28;20036;-62
2021/08/22 01:37:38;;;;;;;7.47;5.07;;;486.50;2227.20;;;;;;5073676;28;20528;-62
2021/08/22 01:40:06;;;;;;;11.70;5.43;;;486.50;2227.20;;;;;;5073938;28;20029;-65
2021/08/22 01:42:33;;;;;;;8.18;5.03;;;486.50;2201.60;;;;;;5074076;28;20044;-62
2021/08/22 01:45:01;;;;;;;9.13;5.10;;;486.50;2227.20;;;;;;5074059;28;20048;-66
2021/08/22 01:47:27;;;;;;;9.00;4.93;;;486.50;2227.20;;;;;;5073524;28;20028;-63
2021/08/22 01:49:54;;;;;;;7.47;4.93;;;486.40;2252.80;;;;;;5073691;28;20025;-63
2021/08/22 01:52:21;;;;;;;8.10;5.30;;;486.40;2252.80;;;;;;5073569;28;20030;-66
2021/08/22 01:54:47;;;;;;;8.18;5.10;;;461.70;2278.40;;;;;;5073229;28;20394;-64
2021/08/22 01:57:13;;;;;;;9.82;5.03;;;461.70;2252.80;;;;;;5073164;28;20040;-63
2021/08/22 01:59:39;;;;;;;7.18;5.68;;;461.70;2252.80;;;;;;5073381;28;20489;-62
2021/08/22 02:02:06;;;;;;;7.38;5.03;;;486.40;2252.80;;;;;;5073314;28;20033;-62
2021/08/22 02:04:47;;;;;;;6.97;5.03;;;461.70;2252.80;;;;;;5073492;28;20040;-63
2021/08/22 02:07:16;;;;;;;8.55;4.75;;;486.40;2278.40;;;;;;5073171;28;20033;-61
2021/08/22 02:09:58;;;;;;;8.40;6.13;;;461.70;2278.40;;;;;;5073191;28;20044;-62
2021/08/22 02:12:24;;;;;;;7.30;5.43;;;461.70;2278.40;;;;;;5073105;28;20409;-62
2021/08/22 02:15:12;;;;;;;8.13;5.22;;;461.70;2278.40;;;;;;5073443;28;20367;-62
2021/08/22 02:17:52;;;;;;;11.18;6.43;;;461.70;2304.00;;;;;;5073226;28;20025;-63
2021/08/22 02:20:19;;;;;;;10.57;5.75;;;461.60;2304.00;;;;;;5073189;28;20549;-61
2021/08/22 02:22:46;;;;;;;9.55;5.43;;;461.60;2304.00;;;;;;5072741;28;20433;-62
2021/08/22 02:25:13;;;;;;;7.25;5.25;;;461.60;2304.00;;;;;;5073090;28;20079;-61
2021/08/22 02:27:40;;;;;;;7.82;5.60;;;461.60;2304.00;;;;;;5073037;28;20031;-60
2021/08/22 02:30:06;;;;;;;6.82;4.93;;;461.60;2304.00;;;;;;5072875;28;20028;-62
2021/08/22 02:32:33;;;;;;;6.75;5.65;;;461.50;2329.60;;;;;;5072761;28;20115;-61
2021/08/22 02:34:58;;;;;;;7.78;5.22;;;461.50;2329.60;;;;;;5071383;28;20052;-59
2021/08/22 02:37:24;;;;;;;7.90;6.05;;;461.50;2329.60;;;;;;5072807;28;20033;-62
2021/08/22 02:39:50;;;;;;;8.20;5.50;;;461.50;2355.20;;;;;;5072692;28;20047;-62
2021/08/22 02:42:17;;;;;;;7.93;5.82;;;461.50;2355.20;;;;;;5072467;28;20040;-65
2021/08/22 02:44:44;;;;;;;9.95;6.25;;;461.40;2355.20;;;;;;5072617;28;20021;-63
2021/08/22 02:47:10;;;;;;;9.55;5.80;;;461.40;2355.20;;;;;;5072772;28;20021;-62
2021/08/22 02:49:37;;;;;;;7.97;5.32;;;461.40;2355.20;;;;;;5072463;28;20025;-63
2021/08/22 02:52:03;;;;;;;8.18;4.95;;;461.40;2355.20;;;;;;5072544;28;20143;-62
2021/08/22 02:54:29;;;;;;;7.22;5.25;;;461.40;2355.20;;;;;;5072532;28;20082;-62
2021/08/22 02:56:55;;;;;;;7.25;5.30;;;461.40;2329.60;;;;;;5072283;28;20048;-62
2021/08/22 02:59:21;;;;;;;7.45;5.32;;;461.40;2355.20;;;;;;5072349;28;20064;-62
2021/08/22 03:01:47;;;;;;;8.82;5.28;;;461.40;2355.20;;;;;;5072306;28;20020;-63
2021/08/22 03:04:12;;;;;;;9.07;5.70;;;461.40;2355.20;;;;;;5072225;28;20115;-63
2021/08/22 03:06:38;;;;;;;8.00;5.35;;;461.40;2355.20;;;;;;5072073;28;20481;-61
2021/08/22 03:09:04;;;;;;;9.27;6.25;;;461.40;2355.20;;;;;;5072064;28;20031;-61
2021/08/22 03:11:30;;;;;;;8.50;5.95;;;461.30;2380.80;;;;;;5072233;28;20013;-62
2021/08/22 03:13:56;;;;;;;9.45;5.55;;;461.30;2380.80;;;;;;5071896;28;20021;-61
2021/08/22 03:16:23;;;;;;;10.38;5.65;;;461.20;2380.80;;;;;;5071966;28;20052;-62
2021/08/22 03:18:49;;;;;;;9.15;5.72;;;461.30;2380.80;;;;;;5072032;28;20491;-63
2021/08/22 03:21:15;;;;;;;7.13;5.38;;;461.20;2380.80;;;;;;5071736;28;20032;-64
2021/08/22 03:23:41;;;;;;;7.97;5.63;;;461.20;2380.80;;;;;;5072067;28;20428;-62
2021/08/22 03:26:07;;;;;;;8.57;4.85;;;461.30;2380.80;;;;;;5071712;28;20021;-63
2021/08/22 03:28:34;;;;;;;7.28;5.35;;;461.20;2380.80;;;;;;5071950;28;20020;-66
2021/08/22 03:31:00;;;;;;;8.57;5.32;;;461.20;2380.80;;;;;;5071915;28;20095;-63
2021/08/22 03:33:26;;;;;;;6.88;5.15;;;461.20;2380.80;;;;;;5071536;28;20486;-61
2021/08/22 03:35:52;;;;;;;7.75;5.32;;;461.20;2380.80;;;;;;5071521;28;20028;-63
2021/08/22 03:38:17;;;;;;;7.45;5.63;;;461.20;2380.80;;;;;;5071364;28;20111;-64
2021/08/22 03:40:43;;;;;;;9.88;5.40;;;461.20;2380.80;;;;;;5071649;28;20025;-62
2021/08/22 03:43:09;;;;;;;10.68;5.97;;;461.20;2380.80;;;;;;5071342;28;20098;-61
2021/08/22 03:45:34;;;;;;;10.80;5.60;;;461.20;2380.80;;;;;;5070887;28;20031;-63
2021/08/22 03:48:00;;;;;;;12.73;6.22;;;461.20;2380.80;;;;;;5071492;28;20429;-65
2021/08/22 03:50:26;;;;;;;9.27;6.72;;;461.10;2380.80;;;;;;5071089;28;20021;-65
2021/08/22 03:52:52;;;;;;;7.13;5.47;;;461.20;2380.80;;;;;;5071320;28;20436;-63
2021/08/22 03:55:21;;;;;;;8.18;5.32;;;461.20;2380.80;;;;;;5071181;28;20091;-63
2021/08/22 03:57:47;;;;;;;8.30;5.80;;;461.20;2380.80;;;;;;5070933;28;20053;-64
2021/08/22 04:00:14;;;;;;;7.85;5.43;;;461.20;2380.80;;;;;;5071029;28;20490;-63
2021/08/22 04:02:40;;;;;;;8.77;5.90;;;461.20;2380.80;;;;;;5071281;28;20040;-62
2021/08/22 04:05:08;;;;;;;8.45;5.88;;;461.30;2380.80;;;;;;5070800;28;20024;-64
2021/08/22 04:07:34;;;;;;;8.13;5.57;;;461.30;2380.80;;;;;;5070674;28;20028;-64
2021/08/22 04:10:00;;;;;;;9.95;6.22;;;461.40;2380.80;;;;;;5071088;28;20020;-63
2021/08/22 04:12:27;;;;;;;14.07;5.93;;;461.30;2380.80;;;;;;5070791;28;20029;-62
2021/08/22 04:14:53;;;;;;;11.80;6.07;;;461.40;2380.80;;;;;;5070756;28;20028;-64
2021/08/22 04:17:19;;;;;;;18.50;6.93;;;461.40;2380.80;;;;;;5070976;28;20024;-63
2021/08/22 04:19:45;;;;;;;11.98;6.50;;;461.50;2380.80;;;;;;5070568;28;20040;-64
2021/08/22 04:22:11;;;;;;;9.15;5.75;;;461.50;2380.80;;;;;;5070597;28;20032;-62
2021/08/22 04:24:37;;;;;;;6.25;5.43;;;461.70;2380.80;;;;;;5070827;28;20036;-62
2021/08/22 04:27:04;;;;;;;7.50;5.72;;;461.70;2380.80;;;;;;5070854;28;20390;-63
2021/08/22 04:29:32;;;;;;;8.80;5.85;;;461.70;2380.80;;;;;;5070839;28;20021;-62
2021/08/22 04:31:58;;;;;;;10.40;5.97;;;486.40;2380.80;;;;;;5070643;28;20027;-62
2021/08/22 04:34:23;;;;;;;8.38;5.68;;;486.40;2380.80;;;;;;5070544;28;20211;-62
2021/08/22 04:36:49;;;;;;;6.55;5.15;;;486.50;2355.20;;;;;;5070324;28;20043;-62
2021/08/22 04:39:16;;;;;;;7.03;5.32;;;486.60;2355.20;;;;;;5069611;28;20028;-62
2021/08/22 04:41:45;;;;;;;10.48;6.05;;;486.80;2329.60;;;;;;5070370;28;20039;-63
2021/08/22 04:44:12;;;;;;;9.35;6.28;;;486.90;2304.00;;;;;;5070119;28;20040;-61
2021/08/22 04:46:38;;;;;;;13.23;7.10;;;487.00;2304.00;;;;;;5070698;28;20025;-61
2021/08/22 04:49:04;;;;;;;10.50;6.47;;;487.10;2278.40;;;;;;5070310;28;20029;-61
2021/08/22 04:51:30;;;;;;;13.93;7.40;;;512.00;2252.80;;;;;;5070432;28;20544;-62
2021/08/22 04:53:56;;;;;;;10.52;7.63;;;538.40;2099.20;;;;;;5070371;28;20351;-63
2021/08/22 04:56:23;;;;;;;13.95;6.82;;;589.30;1920.00;;;;;;5075978;28;20029;-62
2021/08/22 04:58:49;;;;;;;10.02;6.47;;;615.20;1766.40;;;;;;5078692;28;20036;-63
2021/08/22 05:01:15;;;;;;;10.32;5.60;;;640.90;1638.40;;;;;;5078783;28;20016;-62
2021/08/22 05:03:42;;;;;;;9.93;6.38;;;666.20;1587.20;;;;;;5079860;28;20085;-63
2021/08/22 05:06:09;;;;;;;13.85;6.10;;;640.90;1612.80;;;;;;5080415;28;20025;-62
2021/08/22 05:08:35;;;;;;;10.50;5.78;;;640.90;1612.80;;;;;;5078748;28;20371;-63
2021/08/22 05:11:02;;;;;;;8.05;5.88;;;666.00;1612.80;;;;;;5080423;28;20025;-63
2021/08/22 05:13:28;;;;;;;8.70;6.25;;;691.60;1536.00;;;;;;5080928;28;20025;-64
2021/08/22 05:15:54;;;;;;;9.52;6.75;;;742.40;1433.60;;;;;;5080799;28;20028;-63
2021/08/22 05:18:21;;;;;;;7.80;7.00;;;743.10;1382.40;;;;;;5081084;28;20072;-64
2021/08/22 05:20:47;;;;;;;9.88;8.85;;;768.40;1331.20;;;;;;5083035;28;20366;-62
2021/08/22 05:23:13;;;;;;;12.70;11.45;;;768.60;1305.60;;;;;;5090036;28;20032;-65
2021/08/22 05:25:39;;;;;;;15.35;9.70;;;793.60;1305.60;;;;;;5090362;28;20378;-63
2021/08/22 05:28:05;;;;;;;11.60;9.52;;;794.40;1254.40;;;;;;5089797;28;20032;-62
2021/08/22 05:30:30;;;;;;;12.20;10.90;;;844.90;1203.20;;;;;;5090644;28;20020;-63
2021/08/22 05:32:56;;;;;;;9.63;8.73;;;845.30;1177.60;;;;;;5090152;28;20370;-62
2021/08/22 05:35:22;;;;;;;9.18;8.20;;;871.00;1100.80;;;;;;5090338;28;20029;-63
2021/08/22 05:37:48;;;;;;;8.80;7.57;;;871.30;1075.20;;;;;;5090122;28;20047;-62
2021/08/22 05:40:14;;;;;;;10.88;6.95;;;870.80;1100.80;;;;;;5090025;28;20056;-63
2021/08/22 05:42:39;;;;;;;10.25;7.03;;;896.10;1075.20;;;;;;5089889;28;20028;-63
2021/08/22 05:45:05;;;;;;;7.78;7.00;;;896.20;1049.60;;;;;;5089834;28;20031;-64
2021/08/22 05:47:31;;;;;;;8.90;7.82;;;896.80;1024.00;;;;;;5090014;28;20394;-63
2021/08/22 05:49:57;;;;;;;8.18;7.47;;;896.90;998.40;;;;;;5089774;28;20027;-63
2021/08/22 05:52:23;;;;;;;10.20;8.45;;;922.40;998.40;;;;;;5089553;28;20032;-64
2021/08/22 05:54:48;;;;;;;8.45;7.75;;;947.90;947.20;;;;;;5089991;28;20020;-65
2021/08/22 05:57:14;;;;;;;9.18;8.30;;;973.00;947.20;;;;;;5089367;28;20089;-65
2021/08/22 05:59:40;;;;;;;9.38;8.57;;;948.10;921.60;;;;;;5089639;28;20025;-65
2021/08/22 06:02:06;;;;;;;9.00;8.20;;;973.10;947.20;;;;;;5089718;28;20032;-63
2021/08/22 06:04:32;;;;;;;81.35;15.00;;;973.60;921.60;;;;;;5090011;28;20427;-64
2021/08/22 06:06:58;;;;;;;9.63;8.70;;;998.60;921.60;;;;;;5089509;28;20115;-63
2021/08/22 06:09:24;;;;;;;10.20;9.18;;;998.50;947.20;;;;;;5092561;28;20028;-63
2021/08/22 06:11:50;;;;;;;9.73;9.00;;;998.80;921.60;;;;;;5093745;28;20042;-63
2021/08/22 06:14:16;;;;;;;12.20;9.32;;;998.40;921.60;;;;;;5093113;28;20028;-63
2021/08/22 06:16:42;;;;;;;10.45;9.55;;;998.80;921.60;;;;;;5093363;28;20176;-63
2021/08/22 06:19:08;;;;;;;11.05;10.02;;;1024.20;896.00;;;;;;5093348;28;20587;-64
2021/08/22 06:21:34;;;;;;;12.70;11.77;;;1024.10;870.40;;;;;;5093262;28;20024;-64
2021/08/22 06:23:59;;;;;;;11.55;10.65;;;1024.20;870.40;;;;;;5093435;28;20032;-63
2021/08/22 06:26:26;;;;;;;11.23;10.43;;;1049.70;870.40;;;;;;5093274;28;20028;-64
2021/08/22 06:28:55;;;;;;;13.80;12.55;;;1050.40;844.80;;;;;;5093414;28;20024;-63
2021/08/22 06:31:21;;;;;;;14.32;13.32;;;1050.00;870.40;;;;;;5093328;28;20471;-64
2021/08/22 06:33:46;;;;;;;14.98;13.82;;;1050.30;844.80;;;;;;5092900;28;20050;-63
2021/08/22 06:36:12;;;;;;;14.23;13.07;;;1075.90;819.20;;;;;;5092750;28;20036;-65
2021/08/22 06:38:39;;;;;;;13.95;13.00;;;1076.10;793.60;;;;;;5093055;28;20115;-65
2021/08/22 06:41:05;;;;;;;13.57;12.57;;;1101.00;819.20;;;;;;5088217;28;20096;-65
2021/08/22 06:43:31;;;;;;;13.48;12.35;;;1126.40;819.20;;;;;;5073152;28;20464;-64
2021/08/22 06:45:57;;;;;;;14.52;13.52;;;1101.40;793.60;;;;;;5076909;28;20042;-69
2021/08/22 06:48:23;;;;;;;16.52;15.07;;;1076.10;793.60;;;;;;5081568;28;20027;-67
2021/08/22 06:50:49;;;;;;;15.43;14.15;;;1101.20;793.60;;;;;;5081538;28;20044;-63
2021/08/22 06:53:15;;;;;;;14.82;13.82;;;1152.00;768.00;;;;;;5084714;28;20040;-63
2021/08/22 06:55:41;;;;;;;14.88;13.88;;;1152.00;768.00;;;;;;5072762;28;20028;-64
2021/08/22 06:58:07;;;;;;;15.18;14.18;;;1152.00;768.00;;;;;;5072136;28;20047;-67
2021/08/22 07:00:33;;;;;;;15.82;14.60;;;1152.00;768.00;;;;;;5083360;28;20035;-65
2021/08/22 07:02:59;;;;;;;15.40;14.35;;;1126.90;768.00;;;;;;5080149;28;20028;-65
2021/08/22 07:05:25;;;;;;;14.73;13.73;;;1101.40;793.60;;;;;;5071918;28;20036;-64
2021/08/22 07:07:51;;;;;;;15.38;14.27;;;1101.30;793.60;;;;;;5072069;28;20054;-63
2021/08/22 07:10:17;;;;;;;15.23;14.05;;;1076.10;793.60;;;;;;5072008;28;20420;-64
2021/08/22 07:12:43;;;;;;;15.93;14.90;;;1101.10;793.60;;;;;;5072242;28;20104;-63
2021/08/22 07:15:11;;;;;;;16.30;15.10;;;1075.60;819.20;;;;;;5072255;28;20414;-63
2021/08/22 07:17:37;;;;;;;15.38;14.27;;;1126.80;793.60;;;;;;5071928;28;20472;-63
2021/08/22 07:20:03;;;;;;;15.77;14.57;;;1152.20;742.40;;;;;;5070921;28;20056;-65
2021/08/22 07:22:29;;;;;;;15.13;14.07;;;1177.60;716.80;;;;;;5071734;28;20414;-63
2021/08/22 07:24:56;;;;;;;16.02;14.93;;;1152.20;742.40;;;;;;5071683;28;20032;-63
2021/08/22 07:27:22;;;;;;;15.85;14.63;;;1127.10;768.00;;;;;;5071973;28;20112;-63
2021/08/22 07:29:48;;;;;;;15.02;13.82;;;1152.10;742.40;;;;;;5071767;28;20052;-65
2021/08/22 07:32:13;;;;;;;14.75;13.50;;;1152.70;716.80;;;;;;5071692;28;20029;-63
2021/08/22 07:34:39;;;;;;;14.73;13.80;;;1177.70;691.20;;;;;;5071655;28;20029;-64
2021/08/22 07:37:05;;;;;;;14.80;13.82;;;1203.20;691.20;;;;;;5071674;28;20024;-64
2021/08/22 07:39:31;;;;;;;14.75;13.43;;;1152.00;716.80;;;;;;5071638;28;20044;-66
2021/08/22 07:41:57;;;;;;;15.05;13.75;;;1152.90;691.20;;;;;;5071248;28;20068;-64
2021/08/22 07:44:22;;;;;;;14.57;13.38;;;1152.90;691.20;;;;;;5071457;28;20032;-66
2021/08/22 07:46:48;;;;;;;14.60;13.43;;;1203.20;691.20;;;;;;5071632;28;20383;-69
2021/08/22 07:49:18;;;;;;;15.25;13.02;;;1178.20;691.20;;;;;;5071049;28;20052;-66
2021/08/22 07:51:44;;;;;;;14.43;13.35;;;1152.40;716.80;;;;;;5071227;28;20470;-64
2021/08/22 07:54:10;;;;;;;15.05;13.70;;;1127.10;768.00;;;;;;5071149;28;20040;-66
2021/08/22 07:56:39;;;;;;;13.75;12.65;;;1152.10;742.40;;;;;;5071038;28;20033;-64
2021/08/22 07:59:05;;;;;;;15.30;14.13;;;1127.00;768.00;;;;;;5071062;28;20124;-64
2021/08/22 08:01:31;;;;;;;14.98;13.88;;;1127.10;742.40;;;;;;5071279;28;20103;-64
2021/08/22 08:03:56;;;;;;;13.82;12.73;;;1127.00;768.00;;;;;;5070720;28;20398;-63
2021/08/22 08:06:22;;;;;;;14.15;13.05;;;1152.00;768.00;;;;;;5071001;28;20025;-65
2021/08/22 08:08:48;;;;;;;14.13;12.93;;;1178.10;691.20;;;;;;5070956;28;20032;-63
2021/08/22 08:11:14;;;;;;;12.93;11.93;;;1152.70;716.80;;;;;;5071037;28;20020;-66
2021/08/22 08:13:39;;;;;;;13.75;12.60;;;1178.20;665.60;;;;;;5070854;28;20028;-63
2021/08/22 08:16:05;;;;;;;13.20;12.05;;;1203.30;665.60;;;;;;5070691;28;20025;-63
2021/08/22 08:18:31;;;;;;;13.27;12.23;;;1203.40;665.60;;;;;;5070571;28;20024;-65
2021/08/22 08:20:57;;;;;;;12.38;11.27;;;1203.90;665.60;;;;;;5070672;28;20028;-64
2021/08/22 08:23:23;;;;;;;11.05;10.25;;;1203.60;665.60;;;;;;5069051;28;20391;-65
2021/08/22 08:25:49;;;;;;;12.07;11.13;;;1178.10;665.60;;;;;;5068763;28;20031;-63
2021/08/22 08:28:14;;;;;;;12.20;11.40;;;1203.20;665.60;;;;;;5068923;28;20033;-64
2021/08/22 08:30:40;;;;;;;12.70;11.63;;;1203.20;665.60;;;;;;5069297;28;20024;-64
2021/08/22 08:33:06;;;;;;;11.75;10.85;;;1152.20;691.20;;;;;;5070830;28;20020;-64
2021/08/22 08:35:32;;;;;;;11.30;10.50;;;1152.00;691.20;;;;;;5070848;28;20372;-65
2021/08/22 08:37:57;;;;;;;11.30;10.35;;;1126.90;742.40;;;;;;5070467;28;20036;-64
2021/08/22 08:40:23;;;;;;;12.02;9.77;;;1101.60;742.40;;;;;;5070352;28;20028;-63
2021/08/22 08:42:54;;;;;;;11.15;10.25;;;1101.20;742.40;;;;;;5068567;28;20035;-64
2021/08/22 08:45:29;;;;;;;11.60;7.90;;;1075.20;768.00;;;;;;5068866;28;20099;-63
2021/08/22 08:47:57;;;;;;;8.25;7.47;;;1024.70;768.00;;;;;;5068622;28;20032;-64
2021/08/22 08:50:38;;;;;;;11.10;7.75;;;999.20;793.60;;;;;;5068667;28;20033;-69
2021/08/22 08:53:09;;;;;;;9.07;8.18;;;973.20;844.80;;;;;;5068248;28;20477;-68
2021/08/22 08:55:53;;;;;;;8.17;6.07;;;947.40;844.80;;;;;;5068204;28;20031;-63
2021/08/22 08:58:19;;;;;;;10.20;7.13;;;947.70;844.80;;;;;;5068602;28;20289;-64
2021/08/22 09:00:47;;;;;;;7.85;6.20;;;922.40;870.40;;;;;;5068547;28;20497;-63
2021/08/22 09:03:14;;;;;;;6.63;6.03;;;921.60;896.00;;;;;;5068151;28;20396;-64
2021/08/22 09:05:45;;;;;;;6.47;5.70;;;896.50;870.40;;;;;;5068268;28;20123;-64
2021/08/22 09:08:29;;;;;;;7.45;5.82;;;896.70;896.00;;;;;;5068345;28;20043;-63
2021/08/22 09:11:32;;;;;;;5.38;4.88;;;896.20;896.00;;;;;;5068502;28;20027;-62
2021/08/22 09:14:37;;;;;;;6.60;5.35;;;871.10;947.20;;;;;;5071073;28;20074;-64
2021/08/22 09:17:40;;;;;;;9.68;6.45;;;871.20;921.60;;;;;;4986578;28;20039;-63
2021/08/22 09:20:43;;;;;;;8.52;5.45;;;896.00;921.60;;;;;;4986484;28;20478;-66
2021/08/22 09:23:33;;;;;;;6.22;5.13;;;870.90;921.60;;;;;;4986226;28;20047;-64
2021/08/22 09:26:17;;;;;;;5.43;4.93;;;870.60;921.60;;;;;;4986935;28;20049;-67
2021/08/22 09:29:30;;;;;;;5.18;4.57;;;870.70;896.00;;;;;;4986742;28;20034;-67
2021/08/22 09:32:33;;;;;;;5.30;4.75;;;870.50;921.60;;;;;;4986696;28;20163;-71
2021/08/22 09:35:16;;;;;;;8.45;5.15;;;870.50;921.60;;;;;;4986083;28;20047;-68
2021/08/22 09:38:19;;;;;;;7.10;5.53;;;845.70;947.20;;;;;;4990063;28;20741;-64
2021/08/22 09:41:18;;;;;;;7.30;5.28;;;845.70;972.80;;;;;;5008279;28;20433;-65
2021/08/22 09:44:17;;;;;;;5.97;5.38;;;845.70;947.20;;;;;;5010220;28;20480;-63
2021/08/22 09:47:21;;;;;;;5.60;4.78;;;845.50;947.20;;;;;;5012011;28;20061;-65
2021/08/22 09:50:19;;;;;;;8.10;5.50;;;844.90;972.80;;;;;;4972661;28;20093;-64
2021/08/22 09:53:22;;;;;;;6.15;5.32;;;845.20;972.80;;;;;;4972706;28;20031;-64
2021/08/22 09:56:05;;;;;;;5.63;5.03;;;820.10;947.20;;;;;;5051412;28;20029;-63
2021/08/22 09:59:05;;;;;;;6.32;4.72;;;845.10;972.80;;;;;;5051417;28;20136;-63
2021/08/22 10:01:55;;;;;;;10.65;4.97;;;845.10;972.80;;;;;;5051740;28;20033;-64
2021/08/22 10:04:30;;;;;;;5.55;4.80;;;845.30;972.80;;;;;;5053318;28;20037;-70
2021/08/22 10:07:20;;;;;;;7.20;5.53;;;845.40;947.20;;;;;;5060537;28;20048;-62
2021/08/22 10:09:48;;;;;;;8.75;5.18;;;845.40;947.20;;;;;;5061701;28;20031;-63
2021/08/22 10:12:16;;;;;;;6.35;4.40;;;844.90;947.20;;;;;;5065350;28;20024;-63
2021/08/22 10:14:42;;;;;;;8.20;4.70;;;845.00;947.20;;;;;;5063263;28;20063;-64
2021/08/22 10:17:16;;;;;;;6.63;5.38;;;845.10;947.20;;;;;;5061536;28;20025;-63
2021/08/22 10:19:46;;;;;;;5.88;4.20;;;845.30;921.60;;;;;;5070881;28;20040;-63
2021/08/22 10:22:16;;;;;;;5.63;5.07;;;845.20;947.20;;;;;;5070923;28;20111;-64
2021/08/22 10:24:52;;;;;;;6.47;4.97;;;845.20;947.20;;;;;;5070653;28;20036;-63
2021/08/22 10:27:30;;;;;;;7.60;5.47;;;844.90;947.20;;;;;;5088316;28;20462;-64
2021/08/22 10:30:02;;;;;;;7.03;5.22;;;845.00;972.80;;;;;;5093000;28;20474;-69
2021/08/22 10:32:29;;;;;;;5.97;5.30;;;844.80;947.20;;;;;;5093119;28;20359;-65
2021/08/22 10:35:13;;;;;;;5.30;4.75;;;820.10;921.60;;;;;;5092921;28;20280;-65
2021/08/22 10:37:40;;;;;;;7.47;5.30;;;820.10;921.60;;;;;;5093175;28;20028;-67
2021/08/22 10:40:24;;;;;;;5.47;4.40;;;844.80;947.20;;;;;;5080920;28;20020;-63
2021/08/22 10:43:10;;;;;;;6.95;5.07;;;844.90;921.60;;;;;;5081582;28;20028;-69
2021/08/22 10:45:52;;;;;;;6.93;5.22;;;819.90;947.20;;;;;;5082141;28;20020;-64
2021/08/22 10:48:24;;;;;;;6.78;5.53;;;819.60;947.20;;;;;;5082237;28;20440;-62
2021/08/22 10:51:04;;;;;;;;;;;819.70;947.20;;;;;;5081712;28;20016;-62
2021/08/22 10:53:35;;;;;;;6.35;5.18;;;819.40;972.80;;;;;;5080977;28;19905;-63
2021/08/22 10:56:24;;;;;;;15.32;11.55;;;819.20;972.80;;;;;;5085456;28;20028;-68
2021/08/22 10:58:56;;;;;;;15.77;12.50;;;819.40;972.80;;;;;;5061824;28;20048;-63
2021/08/22 11:01:22;;;;;;;5.88;4.82;;;819.50;947.20;;;;;;5072784;28;20131;-63
2021/08/22 11:04:03;;;;;;;5.32;4.47;;;819.80;972.80;;;;;;5072229;28;20039;-62
2021/08/22 11:06:29;;;;;;;6.93;5.68;;;820.00;947.20;;;;;;5072349;28;20370;-66
2021/08/22 11:08:54;;;;;;;8.27;5.80;;;820.10;921.60;;;;;;5072278;28;20043;-63
2021/08/22 11:11:20;;;;;;;8.25;6.90;;;820.00;921.60;;;;;;5073074;28;20423;-63
2021/08/22 11:13:57;;;;;;;7.40;5.70;;;820.10;921.60;;;;;;5072554;28;20031;-64
2021/08/22 11:16:40;;;;;;;6.30;4.95;;;820.00;921.60;;;;;;5072467;28;20040;-64
2021/08/22 11:19:06;;;;;;;6.95;5.40;;;819.80;921.60;;;;;;5071921;28;20052;-64
2021/08/22 11:21:32;;;;;;;6.10;4.50;;;819.90;921.60;;;;;;5072141;28;20032;-63
2021/08/22 11:23:59;;;;;;;5.72;4.68;;;819.90;947.20;;;;;;5071217;28;20036;-63
2021/08/22 11:26:25;;;;;;;6.65;5.07;;;820.00;921.60;;;;;;5071895;28;20034;-63
2021/08/22 11:28:59;;;;;;;5.28;4.30;;;820.10;896.00;;;;;;5072032;28;20108;-64
2021/08/22 11:31:32;;;;;;;5.97;4.75;;;820.00;921.60;;;;;;5071681;28;20193;-64
2021/08/22 11:34:12;;;;;;;8.35;5.95;;;819.80;921.60;;;;;;5071999;28;20559;-69
2021/08/22 11:36:39;;;;;;;8.15;5.20;;;819.80;921.60;;;;;;5071625;28;20043;-63
2021/08/22 11:39:10;;;;;;;5.65;5.07;;;819.50;921.60;;;;;;5070981;28;20021;-64
2021/08/22 11:41:37;;;;;;;5.45;4.32;;;819.50;921.60;;;;;;5071549;28;20379;-63
2021/08/22 11:44:03;;;;;;;5.20;4.70;;;819.80;921.60;;;;;;5071692;28;20112;-65
2021/08/22 11:46:30;;;;;;;6.13;4.60;;;819.90;921.60;;;;;;5071673;28;20050;-63
2021/08/22 11:48:57;;;;;;;5.55;4.07;;;820.10;921.60;;;;;;5071399;28;20107;-64
2021/08/22 11:51:23;;;;;;;7.47;5.03;;;844.80;921.60;;;;;;5071535;28;20016;-63
2021/08/22 11:53:49;;;;;;;5.03;4.20;;;844.90;947.20;;;;;;5071189;28;20035;-65
2021/08/22 11:56:23;;;;;;;7.50;4.85;;;845.00;921.60;;;;;;5071346;28;20027;-64
2021/08/22 11:58:49;;;;;;;4.70;3.67;;;845.10;896.00;;;;;;5071063;28;20470;-63
2021/08/22 12:01:19;;;;;;;7.88;4.97;;;845.20;921.60;;;;;;5070633;28;20028;-62
2021/08/22 12:04:03;;;;;;;5.38;4.30;;;845.20;921.60;;;;;;5070809;28;20044;-62
2021/08/22 12:06:30;;;;;;;7.25;5.10;;;845.20;921.60;;;;;;5071026;28;20033;-62
2021/08/22 12:08:57;;;;;;;5.97;4.80;;;844.90;896.00;;;;;;5070870;28;20112;-62
2021/08/22 12:11:23;;;;;;;6.13;4.55;;;844.90;896.00;;;;;;5071107;28;20032;-63
2021/08/22 12:13:53;;;;;;;6.80;4.38;;;844.80;896.00;;;;;;5070939;28;20028;-62
2021/08/22 12:16:31;;;;;;;6.25;4.85;;;844.80;921.60;;;;;;5070972;28;20471;-62
2021/08/22 12:19:35;;;;;;;7.15;4.85;;;844.90;921.60;;;;;;5070940;28;20037;-62
2021/08/22 12:22:10;;;;;;;4.85;4.20;;;845.10;921.60;;;;;;5009295;28;20049;-62
2021/08/22 12:24:35;;;;;;;6.13;4.45;;;845.20;921.60;;;;;;5008823;28;20121;-62
2021/08/22 12:27:02;;;;;;;6.35;4.30;;;845.00;896.00;;;;;;5009139;28;20683;-62
2021/08/22 12:29:30;;;;;;;5.57;4.55;;;845.10;896.00;;;;;;5008718;28;20117;-62